sensor_id;sensor_type;location;lat;lon;timestamp;P1;durP1;ratioP1;P2;durP2;ratioP2
37789;SDS011;23628;51.434;6.988;2023-05-07T14:15:42;3.88;;;3.33;;
37789;SDS011;23628;51.434;6.988;2023-05-07T14:20:50;4.45;;;3.95;;
37789;SDS011;23628;51.434;6.988;2023-05-07T14:28:50;5.50;;;4.35;;
37789;SDS011;23628;51.434;6.988;2023-05-07T14:31:41;4.90;;;4.37;;
37789;SDS011;23628;51.434;6.988;2023-05-07T14:37:15;7.60;;;4.55;;
37789;SDS011;23628;51.434;6.988;2023-05-07T14:42:25;5.70;;;5.15;;
37789;SDS011;23628;51.434;6.988;2023-05-07T14:48:00;8.85;;;4.90;;
37789;SDS011;23628;51.434;6.988;2023-05-07T15:59:42;5.13;;;4.63;;
37789;SDS011;23628;51.434;6.988;2023-05-07T16:08:13;6.30;;;5.70;;
37789;SDS011;23628;51.434;6.988;2023-05-07T16:13:39;7.72;;;5.90;;
37789;SDS011;23628;51.434;6.988;2023-05-07T16:16:17;8.00;;;5.75;;
37789;SDS011;23628;51.434;6.988;2023-05-07T16:18:47;7.43;;;5.25;;
37789;SDS011;23628;51.434;6.988;2023-05-07T16:21:15;6.22;;;5.40;;
37789;SDS011;23628;51.434;6.988;2023-05-07T16:26:14;6.53;;;5.32;;
37789;SDS011;23628;51.434;6.988;2023-05-07T16:28:43;6.22;;;5.30;;
37789;SDS011;23628;51.434;6.988;2023-05-07T16:33:51;8.20;;;5.20;;
37789;SDS011;23628;51.434;6.988;2023-05-07T16:36:18;6.18;;;4.45;;
37789;SDS011;23628;51.434;6.988;2023-05-07T16:38:46;5.97;;;3.90;;
37789;SDS011;23628;51.434;6.988;2023-05-07T16:41:21;4.40;;;4.00;;
37789;SDS011;23628;51.434;6.988;2023-05-07T16:46:28;3.80;;;3.40;;
37789;SDS011;23628;51.434;6.988;2023-05-07T16:48:56;3.78;;;3.47;;
37789;SDS011;23628;51.434;6.988;2023-05-07T16:54:09;3.88;;;3.58;;
37789;SDS011;23628;51.434;6.988;2023-05-07T16:56:47;5.30;;;3.10;;
37789;SDS011;23628;51.434;6.988;2023-05-07T17:02:20;3.28;;;2.70;;
37789;SDS011;23628;51.434;6.988;2023-05-07T17:07:24;2.80;;;2.60;;
37789;SDS011;23628;51.434;6.988;2023-05-07T17:12:31;4.82;;;2.88;;
37789;SDS011;23628;51.434;6.988;2023-05-07T17:20:15;2.97;;;2.70;;
37789;SDS011;23628;51.434;6.988;2023-05-07T17:22:42;2.53;;;2.33;;
37789;SDS011;23628;51.434;6.988;2023-05-07T17:28:00;2.20;;;2.00;;
37789;SDS011;23628;51.434;6.988;2023-05-07T17:30:34;2.50;;;2.28;;
37789;SDS011;23628;51.434;6.988;2023-05-07T17:33:11;2.85;;;2.55;;
37789;SDS011;23628;51.434;6.988;2023-05-07T17:35:53;2.45;;;2.25;;
37789;SDS011;23628;51.434;6.988;2023-05-07T17:38:27;2.83;;;2.63;;
37789;SDS011;23628;51.434;6.988;2023-05-07T17:43:39;2.97;;;2.67;;
37789;SDS011;23628;51.434;6.988;2023-05-07T17:46:14;3.20;;;2.90;;
37789;SDS011;23628;51.434;6.988;2023-05-07T17:48:51;3.42;;;2.83;;
37789;SDS011;23628;51.434;6.988;2023-05-07T17:54:25;2.85;;;2.65;;
37789;SDS011;23628;51.434;6.988;2023-05-07T17:56:59;3.08;;;2.80;;
37789;SDS011;23628;51.434;6.988;2023-05-07T17:59:27;2.95;;;2.65;;
37789;SDS011;23628;51.434;6.988;2023-05-07T18:01:54;3.80;;;2.95;;
37789;SDS011;23628;51.434;6.988;2023-05-07T18:04:22;3.35;;;2.90;;
37789;SDS011;23628;51.434;6.988;2023-05-07T18:06:51;3.42;;;2.65;;
37789;SDS011;23628;51.434;6.988;2023-05-07T18:09:18;3.33;;;3.03;;
37789;SDS011;23628;51.434;6.988;2023-05-07T18:11:46;3.58;;;3.28;;
37789;SDS011;23628;51.434;6.988;2023-05-07T18:14:14;4.03;;;3.00;;
37789;SDS011;23628;51.434;6.988;2023-05-07T18:16:41;5.63;;;3.10;;
37789;SDS011;23628;51.434;6.988;2023-05-07T18:21:44;3.45;;;3.00;;
37789;SDS011;23628;51.434;6.988;2023-05-07T18:24:37;4.25;;;3.30;;
37789;SDS011;23628;51.434;6.988;2023-05-07T18:27:05;3.65;;;2.97;;
37789;SDS011;23628;51.434;6.988;2023-05-07T18:29:32;5.03;;;3.35;;
37789;SDS011;23628;51.434;6.988;2023-05-07T18:31:59;4.07;;;3.30;;
37789;SDS011;23628;51.434;6.988;2023-05-07T18:34:27;4.43;;;3.20;;
37789;SDS011;23628;51.434;6.988;2023-05-07T18:36:54;3.50;;;3.20;;
37789;SDS011;23628;51.434;6.988;2023-05-07T18:39:21;3.25;;;2.95;;
37789;SDS011;23628;51.434;6.988;2023-05-07T18:41:49;4.47;;;3.15;;
37789;SDS011;23628;51.434;6.988;2023-05-07T18:44:18;3.92;;;3.20;;
37789;SDS011;23628;51.434;6.988;2023-05-07T18:46:50;3.42;;;3.10;;
37789;SDS011;23628;51.434;6.988;2023-05-07T18:49:18;3.28;;;2.97;;
37789;SDS011;23628;51.434;6.988;2023-05-07T18:51:45;3.00;;;2.70;;
37789;SDS011;23628;51.434;6.988;2023-05-07T18:54:13;3.35;;;3.03;;
37789;SDS011;23628;51.434;6.988;2023-05-07T18:56:41;3.70;;;2.92;;
37789;SDS011;23628;51.434;6.988;2023-05-07T18:59:10;3.40;;;2.90;;
37789;SDS011;23628;51.434;6.988;2023-05-07T19:01:39;3.67;;;3.38;;
37789;SDS011;23628;51.434;6.988;2023-05-07T19:04:06;5.20;;;3.35;;
37789;SDS011;23628;51.434;6.988;2023-05-07T19:06:33;7.47;;;2.90;;
37789;SDS011;23628;51.434;6.988;2023-05-07T19:09:01;3.55;;;2.88;;
37789;SDS011;23628;51.434;6.988;2023-05-07T19:11:30;3.20;;;2.90;;
37789;SDS011;23628;51.434;6.988;2023-05-07T19:13:59;3.35;;;2.92;;
37789;SDS011;23628;51.434;6.988;2023-05-07T19:16:38;4.13;;;3.53;;
37789;SDS011;23628;51.434;6.988;2023-05-07T19:19:05;4.25;;;3.85;;
37789;SDS011;23628;51.434;6.988;2023-05-07T19:21:32;4.55;;;4.10;;
37789;SDS011;23628;51.434;6.988;2023-05-07T19:24:00;3.83;;;3.53;;
37789;SDS011;23628;51.434;6.988;2023-05-07T19:26:27;3.90;;;3.60;;
37789;SDS011;23628;51.434;6.988;2023-05-07T19:28:55;4.93;;;3.17;;
37789;SDS011;23628;51.434;6.988;2023-05-07T19:31:25;3.38;;;3.08;;
37789;SDS011;23628;51.434;6.988;2023-05-07T19:33:53;3.35;;;3.05;;
37789;SDS011;23628;51.434;6.988;2023-05-07T19:36:39;3.38;;;3.00;;
37789;SDS011;23628;51.434;6.988;2023-05-07T19:39:07;3.40;;;3.05;;
37789;SDS011;23628;51.434;6.988;2023-05-07T19:41:34;3.75;;;3.03;;
37789;SDS011;23628;51.434;6.988;2023-05-07T19:44:07;2.97;;;2.78;;
37789;SDS011;23628;51.434;6.988;2023-05-07T19:46:34;3.80;;;3.25;;
37789;SDS011;23628;51.434;6.988;2023-05-07T19:49:05;3.20;;;2.90;;
37789;SDS011;23628;51.434;6.988;2023-05-07T19:51:36;3.35;;;3.05;;
37789;SDS011;23628;51.434;6.988;2023-05-07T19:54:04;3.88;;;3.58;;
37789;SDS011;23628;51.434;6.988;2023-05-07T19:56:31;3.95;;;3.38;;
37789;SDS011;23628;51.434;6.988;2023-05-07T19:58:59;4.25;;;3.85;;
37789;SDS011;23628;51.434;6.988;2023-05-07T20:01:26;3.60;;;3.30;;
37789;SDS011;23628;51.434;6.988;2023-05-07T20:03:54;3.83;;;3.38;;
37789;SDS011;23628;51.434;6.988;2023-05-07T20:06:21;4.75;;;3.30;;
37789;SDS011;23628;51.434;6.988;2023-05-07T20:08:49;3.72;;;3.28;;
37789;SDS011;23628;51.434;6.988;2023-05-07T20:11:16;4.13;;;3.40;;
37789;SDS011;23628;51.434;6.988;2023-05-07T20:13:43;3.95;;;3.55;;
37789;SDS011;23628;51.434;6.988;2023-05-07T20:16:11;4.07;;;3.78;;
37789;SDS011;23628;51.434;6.988;2023-05-07T20:18:38;5.20;;;3.85;;
37789;SDS011;23628;51.434;6.988;2023-05-07T20:21:06;4.45;;;4.05;;
37789;SDS011;23628;51.434;6.988;2023-05-07T20:23:33;4.50;;;4.05;;
37789;SDS011;23628;51.434;6.988;2023-05-07T20:26:04;4.28;;;3.88;;
37789;SDS011;23628;51.434;6.988;2023-05-07T20:28:31;4.28;;;3.88;;
37789;SDS011;23628;51.434;6.988;2023-05-07T20:30:59;4.25;;;3.30;;
37789;SDS011;23628;51.434;6.988;2023-05-07T20:33:26;4.97;;;3.67;;
37789;SDS011;23628;51.434;6.988;2023-05-07T20:35:56;5.03;;;3.85;;
37789;SDS011;23628;51.434;6.988;2023-05-07T20:38:23;3.80;;;3.50;;
37789;SDS011;23628;51.434;6.988;2023-05-07T20:40:52;3.97;;;3.67;;
37789;SDS011;23628;51.434;6.988;2023-05-07T20:43:20;4.72;;;4.32;;
37789;SDS011;23628;51.434;6.988;2023-05-07T20:45:46;3.55;;;3.25;;
37789;SDS011;23628;51.434;6.988;2023-05-07T20:48:14;4.35;;;3.63;;
37789;SDS011;23628;51.434;6.988;2023-05-07T20:50:42;3.75;;;3.35;;
37789;SDS011;23628;51.434;6.988;2023-05-07T20:53:09;3.55;;;3.25;;
37789;SDS011;23628;51.434;6.988;2023-05-07T20:56:02;4.30;;;3.83;;
37789;SDS011;23628;51.434;6.988;2023-05-07T20:58:30;5.85;;;3.65;;
37789;SDS011;23628;51.434;6.988;2023-05-07T21:00:57;3.53;;;3.10;;
37789;SDS011;23628;51.434;6.988;2023-05-07T21:03:25;4.00;;;3.60;;
37789;SDS011;23628;51.434;6.988;2023-05-07T21:05:52;3.78;;;3.28;;
37789;SDS011;23628;51.434;6.988;2023-05-07T21:08:21;3.53;;;3.22;;
37789;SDS011;23628;51.434;6.988;2023-05-07T21:10:50;4.85;;;3.85;;
37789;SDS011;23628;51.434;6.988;2023-05-07T21:13:18;3.90;;;3.60;;
37789;SDS011;23628;51.434;6.988;2023-05-07T21:15:45;5.13;;;3.85;;
37789;SDS011;23628;51.434;6.988;2023-05-07T21:18:12;4.90;;;3.70;;
37789;SDS011;23628;51.434;6.988;2023-05-07T21:20:39;4.32;;;3.65;;
37789;SDS011;23628;51.434;6.988;2023-05-07T21:23:07;5.13;;;4.20;;
37789;SDS011;23628;51.434;6.988;2023-05-07T21:25:37;5.32;;;3.92;;
37789;SDS011;23628;51.434;6.988;2023-05-07T21:28:06;3.92;;;3.53;;
37789;SDS011;23628;51.434;6.988;2023-05-07T21:30:35;3.90;;;3.53;;
37789;SDS011;23628;51.434;6.988;2023-05-07T21:33:02;4.55;;;3.70;;
37789;SDS011;23628;51.434;6.988;2023-05-07T21:35:33;4.00;;;3.30;;
37789;SDS011;23628;51.434;6.988;2023-05-07T21:38:11;4.47;;;4.03;;
37789;SDS011;23628;51.434;6.988;2023-05-07T21:40:39;5.60;;;4.13;;
37789;SDS011;23628;51.434;6.988;2023-05-07T21:43:07;6.72;;;3.50;;
37789;SDS011;23628;51.434;6.988;2023-05-07T21:45:34;5.65;;;4.35;;
37789;SDS011;23628;51.434;6.988;2023-05-07T21:48:02;4.20;;;3.80;;
37789;SDS011;23628;51.434;6.988;2023-05-07T21:50:29;4.35;;;3.95;;
37789;SDS011;23628;51.434;6.988;2023-05-07T21:52:57;4.93;;;4.43;;
37789;SDS011;23628;51.434;6.988;2023-05-07T21:55:24;4.88;;;4.38;;
37789;SDS011;23628;51.434;6.988;2023-05-07T21:57:51;5.32;;;4.20;;
37789;SDS011;23628;51.434;6.988;2023-05-07T22:00:31;4.93;;;4.15;;
37789;SDS011;23628;51.434;6.988;2023-05-07T22:02:59;4.95;;;4.55;;
37789;SDS011;23628;51.434;6.988;2023-05-07T22:05:26;6.00;;;4.80;;
37789;SDS011;23628;51.434;6.988;2023-05-07T22:07:53;5.28;;;4.78;;
37789;SDS011;23628;51.434;6.988;2023-05-07T22:10:21;9.18;;;4.50;;
37789;SDS011;23628;51.434;6.988;2023-05-07T22:12:49;9.38;;;5.47;;
37789;SDS011;23628;51.434;6.988;2023-05-07T22:15:17;6.28;;;5.60;;
37789;SDS011;23628;51.434;6.988;2023-05-07T22:17:44;6.25;;;5.65;;
37789;SDS011;23628;51.434;6.988;2023-05-07T22:20:12;5.53;;;5.05;;
37789;SDS011;23628;51.434;6.988;2023-05-07T22:22:46;6.93;;;5.63;;
37789;SDS011;23628;51.434;6.988;2023-05-07T22:25:19;6.65;;;5.85;;
37789;SDS011;23628;51.434;6.988;2023-05-07T22:27:46;5.25;;;4.47;;
37789;SDS011;23628;51.434;6.988;2023-05-07T22:30:14;6.25;;;5.65;;
37789;SDS011;23628;51.434;6.988;2023-05-07T22:32:42;5.80;;;5.20;;
37789;SDS011;23628;51.434;6.988;2023-05-07T22:35:10;5.85;;;5.15;;
37789;SDS011;23628;51.434;6.988;2023-05-07T22:37:37;5.50;;;5.00;;
37789;SDS011;23628;51.434;6.988;2023-05-07T22:40:04;5.85;;;5.13;;
37789;SDS011;23628;51.434;6.988;2023-05-07T22:42:32;7.05;;;6.18;;
37789;SDS011;23628;51.434;6.988;2023-05-07T22:44:59;9.98;;;5.85;;
37789;SDS011;23628;51.434;6.988;2023-05-07T22:47:29;6.30;;;5.28;;
37789;SDS011;23628;51.434;6.988;2023-05-07T22:49:57;8.90;;;6.32;;
37789;SDS011;23628;51.434;6.988;2023-05-07T22:52:26;7.07;;;6.38;;
37789;SDS011;23628;51.434;6.988;2023-05-07T22:54:53;8.38;;;6.18;;
37789;SDS011;23628;51.434;6.988;2023-05-07T22:57:22;6.95;;;6.25;;
37789;SDS011;23628;51.434;6.988;2023-05-07T22:59:53;7.45;;;6.75;;
37789;SDS011;23628;51.434;6.988;2023-05-07T23:02:21;7.40;;;6.70;;
37789;SDS011;23628;51.434;6.988;2023-05-07T23:04:48;7.85;;;7.05;;
37789;SDS011;23628;51.434;6.988;2023-05-07T23:07:15;7.95;;;7.15;;
37789;SDS011;23628;51.434;6.988;2023-05-07T23:09:43;7.70;;;6.90;;
37789;SDS011;23628;51.434;6.988;2023-05-07T23:12:32;8.35;;;7.47;;
37789;SDS011;23628;51.434;6.988;2023-05-07T23:15:00;10.75;;;7.50;;
37789;SDS011;23628;51.434;6.988;2023-05-07T23:17:28;7.97;;;7.20;;
37789;SDS011;23628;51.434;6.988;2023-05-07T23:19:56;8.35;;;7.45;;
37789;SDS011;23628;51.434;6.988;2023-05-07T23:22:23;9.35;;;7.97;;
37789;SDS011;23628;51.434;6.988;2023-05-07T23:24:50;7.88;;;7.18;;
37789;SDS011;23628;51.434;6.988;2023-05-07T23:27:17;7.97;;;7.28;;
37789;SDS011;23628;51.434;6.988;2023-05-07T23:29:45;7.07;;;6.38;;
37789;SDS011;23628;51.434;6.988;2023-05-07T23:32:13;7.07;;;6.38;;
37789;SDS011;23628;51.434;6.988;2023-05-07T23:34:40;6.75;;;6.10;;
37789;SDS011;23628;51.434;6.988;2023-05-07T23:37:08;8.05;;;7.22;;
37789;SDS011;23628;51.434;6.988;2023-05-07T23:39:36;8.60;;;7.55;;
37789;SDS011;23628;51.434;6.988;2023-05-07T23:42:04;7.35;;;6.60;;
37789;SDS011;23628;51.434;6.988;2023-05-07T23:44:31;8.95;;;7.18;;
37789;SDS011;23628;51.434;6.988;2023-05-07T23:46:58;7.32;;;6.50;;
37789;SDS011;23628;51.434;6.988;2023-05-07T23:49:26;7.60;;;6.88;;
37789;SDS011;23628;51.434;6.988;2023-05-07T23:51:54;7.75;;;6.88;;
37789;SDS011;23628;51.434;6.988;2023-05-07T23:54:21;9.77;;;6.97;;
37789;SDS011;23628;51.434;6.988;2023-05-07T23:56:49;8.68;;;7.50;;
37789;SDS011;23628;51.434;6.988;2023-05-07T23:59:16;8.85;;;7.95;;
